Strona główna
METAR-TAF:

METAR-TAF

Lotnisko :

Edgar County Airport

Paris, Illinois, Stany Zjednoczone

Szerokość geograficzna: 39-42-01N, Długość geograficzna: 087-40-11W, wysokość: 199 m

Aktualna obserwacja pogody

Raport powstał 18 minut temu, godzina 14:35 UTC
Wiatr 5 kt od zachodnio-północny zachód
Temperatura 28°C
Wilgotność 84%
Ciśnienie 1015 hPa
Widzialność: 16.1 km
Przerywane chmury na wysokości 1200 ft
Przerywane chmury na wysokości 2000 ft
Przerywane chmury na wysokości 2900 ft

METAR: KPRG 171435Z AUTO 30005KT 10SM BKN012 BKN020 BKN029 28/25 A2998 RMK AO2 T02820248

czas: 09:53 (14:53 UTC)


TAF: brakujący

Obserwacja i prognoza pogody dla ponad 4000 lotnisk (raport METAR i TAF).

Dostępne stacje oznaczono żółtymi i czerwonymi punktami na mapie.

Najedź kursorem aby zobaczyć nazwę stacji.

Kliknij aby zobaczyć obserwacje i prognozy pogody.

Aby zmienić mapę: kliknij na zielony przycisk z czarnym krzyżykiem, aby powiększyć; na zielony przycisk z myślnikiem, aby pomniejszyć; na zielone strzałki, aby przejść do map sąsiednich.


METAR-TAF: